sensor_id;sensor_type;location;lat;lon;timestamp;pressure;altitude;pressure_sealevel;temperature
65316;BMP280;51920;53.952;10.292;2023-02-11T00:00:10;102251.22;;;5.02
65316;BMP280;51920;53.952;10.292;2023-02-11T00:02:36;102253.72;;;4.98
65316;BMP280;51920;53.952;10.292;2023-02-11T00:05:02;102242.88;;;5.03
65316;BMP280;51920;53.952;10.292;2023-02-11T00:07:29;102242.38;;;5.01
65316;BMP280;51920;53.952;10.292;2023-02-11T00:09:55;102224.56;;;4.92
65316;BMP280;51920;53.952;10.292;2023-02-11T00:12:20;102226.69;;;4.95
65316;BMP280;51920;53.952;10.292;2023-02-11T00:14:46;102204.59;;;4.98
65316;BMP280;51920;53.952;10.292;2023-02-11T00:17:12;102211.53;;;4.99
65316;BMP280;51920;53.952;10.292;2023-02-11T00:19:37;102183.50;;;4.91
65316;BMP280;51920;53.952;10.292;2023-02-11T00:22:04;102208.94;;;5.07
65316;BMP280;51920;53.952;10.292;2023-02-11T00:24:29;102213.25;;;5.09
65316;BMP280;51920;53.952;10.292;2023-02-11T00:26:55;102200.97;;;5.16
65316;BMP280;51920;53.952;10.292;2023-02-11T00:29:20;102199.69;;;5.00
65316;BMP280;51920;53.952;10.292;2023-02-11T00:31:46;102199.81;;;5.09
65316;BMP280;51920;53.952;10.292;2023-02-11T00:34:12;102183.78;;;5.03
65316;BMP280;51920;53.952;10.292;2023-02-11T00:36:37;102171.16;;;5.04
65316;BMP280;51920;53.952;10.292;2023-02-11T00:39:03;102180.72;;;5.10
65316;BMP280;51920;53.952;10.292;2023-02-11T00:41:29;102196.00;;;5.23
65316;BMP280;51920;53.952;10.292;2023-02-11T00:43:54;102169.75;;;5.20
65316;BMP280;51920;53.952;10.292;2023-02-11T00:46:20;102185.00;;;5.34
65316;BMP280;51920;53.952;10.292;2023-02-11T00:48:46;102179.47;;;5.30
65316;BMP280;51920;53.952;10.292;2023-02-11T00:51:12;102179.19;;;5.32
65316;BMP280;51920;53.952;10.292;2023-02-11T00:53:37;102182.03;;;5.35
65316;BMP280;51920;53.952;10.292;2023-02-11T00:56:03;102171.91;;;5.32
65316;BMP280;51920;53.952;10.292;2023-02-11T00:58:29;102165.13;;;5.35
65316;BMP280;51920;53.952;10.292;2023-02-11T01:00:55;102157.34;;;5.33
65316;BMP280;51920;53.952;10.292;2023-02-11T01:03:21;102153.44;;;5.39
65316;BMP280;51920;53.952;10.292;2023-02-11T01:05:46;102148.38;;;5.38
65316;BMP280;51920;53.952;10.292;2023-02-11T01:08:12;102145.94;;;5.50
65316;BMP280;51920;53.952;10.292;2023-02-11T01:10:37;102130.38;;;5.38
65316;BMP280;51920;53.952;10.292;2023-02-11T01:13:03;102151.31;;;5.50
65316;BMP280;51920;53.952;10.292;2023-02-11T01:15:31;102108.41;;;5.36
65316;BMP280;51920;53.952;10.292;2023-02-11T01:17:57;102118.22;;;5.41
65316;BMP280;51920;53.952;10.292;2023-02-11T01:20:25;102125.88;;;5.48
65316;BMP280;51920;53.952;10.292;2023-02-11T01:22:51;102138.78;;;5.59
65316;BMP280;51920;53.952;10.292;2023-02-11T01:25:16;102117.84;;;5.56
65316;BMP280;51920;53.952;10.292;2023-02-11T01:27:42;102116.94;;;5.61
65316;BMP280;51920;53.952;10.292;2023-02-11T01:30:10;102124.31;;;5.78
65316;BMP280;51920;53.952;10.292;2023-02-11T01:32:38;102119.38;;;5.71
65316;BMP280;51920;53.952;10.292;2023-02-11T01:35:04;102111.97;;;5.77
65316;BMP280;51920;53.952;10.292;2023-02-11T01:37:32;102123.78;;;5.67
65316;BMP280;51920;53.952;10.292;2023-02-11T01:39:58;102123.06;;;5.75
65316;BMP280;51920;53.952;10.292;2023-02-11T01:42:23;102112.22;;;5.66
65316;BMP280;51920;53.952;10.292;2023-02-11T01:44:51;102124.16;;;5.74
65316;BMP280;51920;53.952;10.292;2023-02-11T01:47:17;102129.22;;;5.76
65316;BMP280;51920;53.952;10.292;2023-02-11T01:49:50;102125.03;;;5.70
65316;BMP280;51920;53.952;10.292;2023-02-11T01:52:21;102137.94;;;5.81
65316;BMP280;51920;53.952;10.292;2023-02-11T01:55:00;102137.56;;;5.97
65316;BMP280;51920;53.952;10.292;2023-02-11T01:57:50;102127.97;;;5.82
65316;BMP280;51920;53.952;10.292;2023-02-11T02:00:42;102147.66;;;5.91
65316;BMP280;51920;53.952;10.292;2023-02-11T02:03:17;102142.13;;;5.96
65316;BMP280;51920;53.952;10.292;2023-02-11T02:05:50;102135.00;;;5.92
65316;BMP280;51920;53.952;10.292;2023-02-11T02:08:38;102136.09;;;5.91
65316;BMP280;51920;53.952;10.292;2023-02-11T02:11:04;102141.00;;;5.89
65316;BMP280;51920;53.952;10.292;2023-02-11T02:13:32;102138.34;;;5.97
65316;BMP280;51920;53.952;10.292;2023-02-11T02:16:00;102141.03;;;5.97
65316;BMP280;51920;53.952;10.292;2023-02-11T02:24:51;102122.25;;;6.06
65316;BMP280;51920;53.952;10.292;2023-02-11T02:27:54;102121.13;;;6.07
65316;BMP280;51920;53.952;10.292;2023-02-11T02:30:40;102124.16;;;6.05
65316;BMP280;51920;53.952;10.292;2023-02-11T02:38:22;102119.88;;;6.04
65316;BMP280;51920;53.952;10.292;2023-02-11T02:41:03;102132.06;;;6.11
65316;BMP280;51920;53.952;10.292;2023-02-11T02:43:31;102117.66;;;6.06
65316;BMP280;51920;53.952;10.292;2023-02-11T02:46:17;102116.41;;;6.04
65316;BMP280;51920;53.952;10.292;2023-02-11T02:48:43;102110.53;;;6.11
65316;BMP280;51920;53.952;10.292;2023-02-11T02:57:17;102091.41;;;6.12
65316;BMP280;51920;53.952;10.292;2023-02-11T03:00:10;102085.28;;;6.20
65316;BMP280;51920;53.952;10.292;2023-02-11T03:02:52;102080.69;;;6.21
65316;BMP280;51920;53.952;10.292;2023-02-11T03:05:47;102087.50;;;6.18
65316;BMP280;51920;53.952;10.292;2023-02-11T03:08:37;102077.69;;;6.22
65316;BMP280;51920;53.952;10.292;2023-02-11T03:11:06;102084.00;;;6.18
65316;BMP280;51920;53.952;10.292;2023-02-11T03:13:35;102082.88;;;6.19
65316;BMP280;51920;53.952;10.292;2023-02-11T03:16:12;102078.00;;;6.21
65316;BMP280;51920;53.952;10.292;2023-02-11T03:18:41;102080.88;;;6.33
65316;BMP280;51920;53.952;10.292;2023-02-11T03:21:09;102077.22;;;6.29
65316;BMP280;51920;53.952;10.292;2023-02-11T03:23:51;102071.38;;;6.27
65316;BMP280;51920;53.952;10.292;2023-02-11T03:26:24;102070.59;;;6.35
65316;BMP280;51920;53.952;10.292;2023-02-11T03:31:32;102061.69;;;6.26
65316;BMP280;51920;53.952;10.292;2023-02-11T03:34:14;102058.06;;;6.31
65316;BMP280;51920;53.952;10.292;2023-02-11T03:36:45;102044.94;;;6.29
65316;BMP280;51920;53.952;10.292;2023-02-11T03:39:18;102029.25;;;6.31
65316;BMP280;51920;53.952;10.292;2023-02-11T03:41:47;102044.50;;;6.36
65316;BMP280;51920;53.952;10.292;2023-02-11T03:44:14;102035.91;;;6.42
65316;BMP280;51920;53.952;10.292;2023-02-11T03:46:43;102043.25;;;6.51
65316;BMP280;51920;53.952;10.292;2023-02-11T03:49:13;102028.34;;;6.36
65316;BMP280;51920;53.952;10.292;2023-02-11T03:51:40;102033.41;;;6.37
65316;BMP280;51920;53.952;10.292;2023-02-11T03:54:11;102037.50;;;6.43
65316;BMP280;51920;53.952;10.292;2023-02-11T03:56:48;102049.56;;;6.55
65316;BMP280;51920;53.952;10.292;2023-02-11T03:59:15;102054.75;;;6.42
65316;BMP280;51920;53.952;10.292;2023-02-11T04:01:40;102069.34;;;6.41
65316;BMP280;51920;53.952;10.292;2023-02-11T04:04:05;102057.78;;;6.41
65316;BMP280;51920;53.952;10.292;2023-02-11T04:06:31;102078.53;;;6.49
65316;BMP280;51920;53.952;10.292;2023-02-11T04:08:56;102077.47;;;6.59
65316;BMP280;51920;53.952;10.292;2023-02-11T04:11:21;102074.75;;;6.59
65316;BMP280;51920;53.952;10.292;2023-02-11T04:13:47;102092.31;;;6.56
65316;BMP280;51920;53.952;10.292;2023-02-11T04:16:12;102087.09;;;6.51
65316;BMP280;51920;53.952;10.292;2023-02-11T04:18:38;102089.00;;;6.51
65316;BMP280;51920;53.952;10.292;2023-02-11T04:21:03;102079.66;;;6.65
65316;BMP280;51920;53.952;10.292;2023-02-11T04:23:29;102079.16;;;6.55
65316;BMP280;51920;53.952;10.292;2023-02-11T04:25:54;102088.41;;;6.62
65316;BMP280;51920;53.952;10.292;2023-02-11T04:28:19;102075.84;;;6.58
65316;BMP280;51920;53.952;10.292;2023-02-11T04:30:45;102079.66;;;6.57
65316;BMP280;51920;53.952;10.292;2023-02-11T04:33:10;102061.75;;;6.52
65316;BMP280;51920;53.952;10.292;2023-02-11T04:35:36;102075.72;;;6.63
65316;BMP280;51920;53.952;10.292;2023-02-11T04:38:01;102036.72;;;6.43
65316;BMP280;51920;53.952;10.292;2023-02-11T04:40:26;102057.00;;;6.66
65316;BMP280;51920;53.952;10.292;2023-02-11T04:42:52;102066.34;;;6.69
65316;BMP280;51920;53.952;10.292;2023-02-11T04:45:17;102067.03;;;6.75
65316;BMP280;51920;53.952;10.292;2023-02-11T04:47:42;102080.94;;;6.68
65316;BMP280;51920;53.952;10.292;2023-02-11T04:50:08;102082.38;;;6.74
65316;BMP280;51920;53.952;10.292;2023-02-11T04:52:33;102076.03;;;6.70
65316;BMP280;51920;53.952;10.292;2023-02-11T04:54:59;102078.28;;;6.77
65316;BMP280;51920;53.952;10.292;2023-02-11T04:57:24;102072.25;;;6.71
65316;BMP280;51920;53.952;10.292;2023-02-11T04:59:49;102068.59;;;6.84
65316;BMP280;51920;53.952;10.292;2023-02-11T05:02:15;102071.44;;;6.79
65316;BMP280;51920;53.952;10.292;2023-02-11T05:04:40;102061.81;;;6.87
65316;BMP280;51920;53.952;10.292;2023-02-11T05:07:05;102067.81;;;6.93
65316;BMP280;51920;53.952;10.292;2023-02-11T05:09:31;102059.41;;;6.85
65316;BMP280;51920;53.952;10.292;2023-02-11T05:11:56;102058.91;;;6.92
65316;BMP280;51920;53.952;10.292;2023-02-11T05:14:22;102043.56;;;6.93
65316;BMP280;51920;53.952;10.292;2023-02-11T05:16:47;102028.66;;;6.86
65316;BMP280;51920;53.952;10.292;2023-02-11T05:19:13;102033.44;;;6.90
65316;BMP280;51920;53.952;10.292;2023-02-11T05:21:38;102047.34;;;6.92
65316;BMP280;51920;53.952;10.292;2023-02-11T05:24:04;102028.19;;;6.84
65316;BMP280;51920;53.952;10.292;2023-02-11T05:26:31;102033.75;;;6.88
65316;BMP280;51920;53.952;10.292;2023-02-11T05:28:56;102023.09;;;6.92
65316;BMP280;51920;53.952;10.292;2023-02-11T05:31:21;102001.72;;;6.86
65316;BMP280;51920;53.952;10.292;2023-02-11T05:33:47;102008.09;;;6.91
65316;BMP280;51920;53.952;10.292;2023-02-11T05:36:12;102002.53;;;6.87
65316;BMP280;51920;53.952;10.292;2023-02-11T05:38:39;102011.25;;;6.84
65316;BMP280;51920;53.952;10.292;2023-02-11T05:41:05;102008.53;;;6.93
65316;BMP280;51920;53.952;10.292;2023-02-11T05:43:30;102002.19;;;6.97
65316;BMP280;51920;53.952;10.292;2023-02-11T05:45:56;102012.78;;;6.94
65316;BMP280;51920;53.952;10.292;2023-02-11T05:48:22;102007.28;;;6.90
65316;BMP280;51920;53.952;10.292;2023-02-11T05:50:48;102018.03;;;6.81
65316;BMP280;51920;53.952;10.292;2023-02-11T05:53:14;102013.94;;;6.84
65316;BMP280;51920;53.952;10.292;2023-02-11T05:55:39;102028.34;;;6.97
65316;BMP280;51920;53.952;10.292;2023-02-11T05:58:05;102026.78;;;6.87
65316;BMP280;51920;53.952;10.292;2023-02-11T06:00:31;102019.19;;;6.89
65316;BMP280;51920;53.952;10.292;2023-02-11T06:02:56;102030.09;;;6.93
65316;BMP280;51920;53.952;10.292;2023-02-11T06:05:22;102028.03;;;6.90
65316;BMP280;51920;53.952;10.292;2023-02-11T06:07:47;102040.25;;;6.87
65316;BMP280;51920;53.952;10.292;2023-02-11T06:10:12;102051.63;;;6.93
65316;BMP280;51920;53.952;10.292;2023-02-11T06:12:38;102050.03;;;6.92
65316;BMP280;51920;53.952;10.292;2023-02-11T06:15:04;102066.84;;;6.97
65316;BMP280;51920;53.952;10.292;2023-02-11T06:17:30;102058.91;;;7.01
65316;BMP280;51920;53.952;10.292;2023-02-11T06:19:59;102060.34;;;7.07
65316;BMP280;51920;53.952;10.292;2023-02-11T06:22:25;102056.88;;;6.98
65316;BMP280;51920;53.952;10.292;2023-02-11T06:24:50;102054.66;;;7.00
65316;BMP280;51920;53.952;10.292;2023-02-11T06:27:16;102054.03;;;7.03
65316;BMP280;51920;53.952;10.292;2023-02-11T06:29:43;102044.66;;;7.00
65316;BMP280;51920;53.952;10.292;2023-02-11T06:32:09;102041.34;;;6.95
65316;BMP280;51920;53.952;10.292;2023-02-11T06:34:35;102045.13;;;6.94
65316;BMP280;51920;53.952;10.292;2023-02-11T06:37:00;102064.00;;;7.02
65316;BMP280;51920;53.952;10.292;2023-02-11T06:39:25;102066.06;;;6.97
65316;BMP280;51920;53.952;10.292;2023-02-11T06:41:51;102076.84;;;7.14
65316;BMP280;51920;53.952;10.292;2023-02-11T06:44:16;102075.22;;;6.96
65316;BMP280;51920;53.952;10.292;2023-02-11T06:46:42;102073.53;;;7.00
65316;BMP280;51920;53.952;10.292;2023-02-11T06:49:07;102075.59;;;7.03
65316;BMP280;51920;53.952;10.292;2023-02-11T06:51:32;102085.06;;;7.09
65316;BMP280;51920;53.952;10.292;2023-02-11T06:53:58;102066.22;;;7.00
65316;BMP280;51920;53.952;10.292;2023-02-11T06:56:23;102081.91;;;7.07
65316;BMP280;51920;53.952;10.292;2023-02-11T06:58:52;102082.22;;;7.14
65316;BMP280;51920;53.952;10.292;2023-02-11T07:01:20;102090.47;;;7.09
65316;BMP280;51920;53.952;10.292;2023-02-11T07:03:45;102091.06;;;7.06
65316;BMP280;51920;53.952;10.292;2023-02-11T07:06:13;102084.28;;;7.00
65316;BMP280;51920;53.952;10.292;2023-02-11T07:08:39;102084.13;;;7.05
65316;BMP280;51920;53.952;10.292;2023-02-11T07:11:16;102086.69;;;7.01
65316;BMP280;51920;53.952;10.292;2023-02-11T07:13:42;102102.53;;;7.03
65316;BMP280;51920;53.952;10.292;2023-02-11T07:16:10;102095.56;;;7.02
65316;BMP280;51920;53.952;10.292;2023-02-11T07:18:35;102091.75;;;7.03
65316;BMP280;51920;53.952;10.292;2023-02-11T07:21:09;102107.41;;;7.10
65316;BMP280;51920;53.952;10.292;2023-02-11T07:23:35;102095.06;;;7.17
65316;BMP280;51920;53.952;10.292;2023-02-11T07:26:05;102095.69;;;7.23
65316;BMP280;51920;53.952;10.292;2023-02-11T07:28:33;102092.34;;;7.17
65316;BMP280;51920;53.952;10.292;2023-02-11T07:30:58;102094.41;;;7.20
65316;BMP280;51920;53.952;10.292;2023-02-11T07:33:24;102109.66;;;7.16
65316;BMP280;51920;53.952;10.292;2023-02-11T07:35:49;102114.88;;;7.13
65316;BMP280;51920;53.952;10.292;2023-02-11T07:38:15;102122.47;;;7.19
65316;BMP280;51920;53.952;10.292;2023-02-11T07:40:40;102123.13;;;7.16
65316;BMP280;51920;53.952;10.292;2023-02-11T07:43:06;102135.34;;;7.14
65316;BMP280;51920;53.952;10.292;2023-02-11T07:45:31;102144.34;;;7.18
65316;BMP280;51920;53.952;10.292;2023-02-11T07:47:57;102152.59;;;7.21
65316;BMP280;51920;53.952;10.292;2023-02-11T07:50:22;102151.50;;;7.22
65316;BMP280;51920;53.952;10.292;2023-02-11T07:52:47;102160.84;;;7.16
65316;BMP280;51920;53.952;10.292;2023-02-11T07:55:13;102164.34;;;7.25
65316;BMP280;51920;53.952;10.292;2023-02-11T07:57:38;102156.56;;;7.15
65316;BMP280;51920;53.952;10.292;2023-02-11T08:00:05;102159.72;;;7.17
65316;BMP280;51920;53.952;10.292;2023-02-11T08:02:35;102163.38;;;7.21
65316;BMP280;51920;53.952;10.292;2023-02-11T08:05:01;102155.16;;;7.26
65316;BMP280;51920;53.952;10.292;2023-02-11T08:07:26;102172.56;;;7.20
65316;BMP280;51920;53.952;10.292;2023-02-11T08:09:53;102167.34;;;7.15
65316;BMP280;51920;53.952;10.292;2023-02-11T08:12:19;102172.41;;;7.25
65316;BMP280;51920;53.952;10.292;2023-02-11T08:14:45;102175.44;;;7.24
65316;BMP280;51920;53.952;10.292;2023-02-11T08:17:10;102186.03;;;7.20
65316;BMP280;51920;53.952;10.292;2023-02-11T08:19:36;102192.56;;;7.19
65316;BMP280;51920;53.952;10.292;2023-02-11T08:22:02;102182.88;;;7.27
65316;BMP280;51920;53.952;10.292;2023-02-11T08:24:28;102183.19;;;7.25
65316;BMP280;51920;53.952;10.292;2023-02-11T08:26:54;102192.41;;;7.24
65316;BMP280;51920;53.952;10.292;2023-02-11T08:29:19;102182.25;;;7.39
65316;BMP280;51920;53.952;10.292;2023-02-11T08:31:46;102181.31;;;7.26
65316;BMP280;51920;53.952;10.292;2023-02-11T08:34:12;102185.25;;;7.28
65316;BMP280;51920;53.952;10.292;2023-02-11T08:36:40;102190.03;;;7.32
65316;BMP280;51920;53.952;10.292;2023-02-11T08:39:11;102191.75;;;7.27
65316;BMP280;51920;53.952;10.292;2023-02-11T08:41:37;102184.97;;;7.39
65316;BMP280;51920;53.952;10.292;2023-02-11T08:44:02;102183.81;;;7.31
65316;BMP280;51920;53.952;10.292;2023-02-11T08:46:31;102179.38;;;7.44
65316;BMP280;51920;53.952;10.292;2023-02-11T08:48:57;102171.78;;;7.46
65316;BMP280;51920;53.952;10.292;2023-02-11T08:51:25;102174.16;;;7.56
65316;BMP280;51920;53.952;10.292;2023-02-11T08:53:53;102184.63;;;7.49
65316;BMP280;51920;53.952;10.292;2023-02-11T08:56:20;102182.41;;;7.51
65316;BMP280;51920;53.952;10.292;2023-02-11T08:58:48;102176.19;;;7.59
65316;BMP280;51920;53.952;10.292;2023-02-11T09:01:25;102174.16;;;7.47
65316;BMP280;51920;53.952;10.292;2023-02-11T09:03:52;102174.00;;;7.44
65316;BMP280;51920;53.952;10.292;2023-02-11T09:06:17;102174.31;;;7.51
65316;BMP280;51920;53.952;10.292;2023-02-11T09:08:46;102182.56;;;7.46
65316;BMP280;51920;53.952;10.292;2023-02-11T09:11:13;102191.13;;;7.48
65316;BMP280;51920;53.952;10.292;2023-02-11T09:13:40;102196.06;;;7.46
65316;BMP280;51920;53.952;10.292;2023-02-11T09:16:06;102205.56;;;7.52
65316;BMP280;51920;53.952;10.292;2023-02-11T09:18:32;102207.13;;;7.53
65316;BMP280;51920;53.952;10.292;2023-02-11T09:21:06;102197.47;;;7.52
65316;BMP280;51920;53.952;10.292;2023-02-11T09:23:33;102198.59;;;7.51
65316;BMP280;51920;53.952;10.292;2023-02-11T09:26:07;102196.22;;;7.50
65316;BMP280;51920;53.952;10.292;2023-02-11T09:28:33;102198.41;;;7.56
65316;BMP280;51920;53.952;10.292;2023-02-11T09:31:04;102204.31;;;7.50
65316;BMP280;51920;53.952;10.292;2023-02-11T09:33:30;102208.91;;;7.49
65316;BMP280;51920;53.952;10.292;2023-02-11T09:36:02;102216.78;;;7.54
65316;BMP280;51920;53.952;10.292;2023-02-11T09:38:32;102218.56;;;7.50
65316;BMP280;51920;53.952;10.292;2023-02-11T09:40:58;102215.69;;;7.55
65316;BMP280;51920;53.952;10.292;2023-02-11T09:43:45;102199.69;;;7.50
65316;BMP280;51920;53.952;10.292;2023-02-11T09:46:16;102215.88;;;7.59
65316;BMP280;51920;53.952;10.292;2023-02-11T09:48:46;102217.00;;;7.49
65316;BMP280;51920;53.952;10.292;2023-02-11T09:51:21;102220.63;;;7.53
65316;BMP280;51920;53.952;10.292;2023-02-11T09:53:56;102218.38;;;7.64
65316;BMP280;51920;53.952;10.292;2023-02-11T09:56:23;102219.66;;;7.58
65316;BMP280;51920;53.952;10.292;2023-02-11T09:58:49;102228.41;;;7.63
65316;BMP280;51920;53.952;10.292;2023-02-11T10:06:38;102244.91;;;7.71
65316;BMP280;51920;53.952;10.292;2023-02-11T10:12:10;102243.75;;;7.80
65316;BMP280;51920;53.952;10.292;2023-02-11T10:22:44;102220.34;;;8.11
65316;BMP280;51920;53.952;10.292;2023-02-11T10:25:38;102224.03;;;8.15
65316;BMP280;51920;53.952;10.292;2023-02-11T10:28:16;102234.00;;;8.14
65316;BMP280;51920;53.952;10.292;2023-02-11T10:30:48;102237.31;;;8.20
65316;BMP280;51920;53.952;10.292;2023-02-11T10:36:10;102248.75;;;8.25
65316;BMP280;51920;53.952;10.292;2023-02-11T10:38:37;102242.69;;;8.28
65316;BMP280;51920;53.952;10.292;2023-02-11T10:41:19;102241.25;;;8.31
65316;BMP280;51920;53.952;10.292;2023-02-11T10:43:45;102245.53;;;8.32
65316;BMP280;51920;53.952;10.292;2023-02-11T10:46:17;102239.22;;;8.28
65316;BMP280;51920;53.952;10.292;2023-02-11T10:48:47;102246.84;;;8.26
65316;BMP280;51920;53.952;10.292;2023-02-11T10:51:23;102244.16;;;8.26
65316;BMP280;51920;53.952;10.292;2023-02-11T10:57:00;102244.44;;;8.33
65316;BMP280;51920;53.952;10.292;2023-02-11T10:59:32;102249.50;;;8.35
65316;BMP280;51920;53.952;10.292;2023-02-11T11:02:00;102237.75;;;8.30
65316;BMP280;51920;53.952;10.292;2023-02-11T11:15:23;102255.56;;;8.23
65316;BMP280;51920;53.952;10.292;2023-02-11T11:18:09;102259.59;;;8.17
65316;BMP280;51920;53.952;10.292;2023-02-11T11:20:35;102255.44;;;8.11
65316;BMP280;51920;53.952;10.292;2023-02-11T11:23:17;102257.97;;;8.16
65316;BMP280;51920;53.952;10.292;2023-02-11T11:25:45;102255.09;;;8.21
65316;BMP280;51920;53.952;10.292;2023-02-11T11:28:24;102267.22;;;8.15
65316;BMP280;51920;53.952;10.292;2023-02-11T11:30:51;102274.00;;;8.21
65316;BMP280;51920;53.952;10.292;2023-02-11T11:33:22;102270.97;;;8.22
65316;BMP280;51920;53.952;10.292;2023-02-11T11:36:12;102271.44;;;8.33
65316;BMP280;51920;53.952;10.292;2023-02-11T11:38:47;102274.44;;;8.40
65316;BMP280;51920;53.952;10.292;2023-02-11T11:41:20;102274.75;;;8.39
65316;BMP280;51920;53.952;10.292;2023-02-11T11:46:28;102278.72;;;8.41
65316;BMP280;51920;53.952;10.292;2023-02-11T11:49:03;102291.28;;;8.37
65316;BMP280;51920;53.952;10.292;2023-02-11T11:51:32;102284.78;;;8.38
65316;BMP280;51920;53.952;10.292;2023-02-11T11:54:03;102300.03;;;8.34
65316;BMP280;51920;53.952;10.292;2023-02-11T11:56:38;102292.41;;;8.36
65316;BMP280;51920;53.952;10.292;2023-02-11T11:59:10;102282.84;;;8.39
65316;BMP280;51920;53.952;10.292;2023-02-11T12:17:37;102298.84;;;8.61
65316;BMP280;51920;53.952;10.292;2023-02-11T12:20:17;102304.88;;;8.58
65316;BMP280;51920;53.952;10.292;2023-02-11T12:31:10;102299.75;;;8.65
65316;BMP280;51920;53.952;10.292;2023-02-11T12:33:51;102298.50;;;8.63
65316;BMP280;51920;53.952;10.292;2023-02-11T12:42:08;102275.13;;;8.67
65316;BMP280;51920;53.952;10.292;2023-02-11T12:48:16;102270.28;;;8.81
65316;BMP280;51920;53.952;10.292;2023-02-11T12:53:40;102278.34;;;8.90
65316;BMP280;51920;53.952;10.292;2023-02-11T12:58:41;102286.13;;;8.92
65316;BMP280;51920;53.952;10.292;2023-02-11T13:01:11;102283.38;;;9.00
65316;BMP280;51920;53.952;10.292;2023-02-11T13:06:48;102281.13;;;9.02
65316;BMP280;51920;53.952;10.292;2023-02-11T13:09:21;102290.22;;;8.98
65316;BMP280;51920;53.952;10.292;2023-02-11T13:11:54;102295.56;;;9.06
65316;BMP280;51920;53.952;10.292;2023-02-11T13:14:37;102304.34;;;9.03
65316;BMP280;51920;53.952;10.292;2023-02-11T13:17:13;102305.28;;;9.07
65316;BMP280;51920;53.952;10.292;2023-02-11T13:19:49;102303.03;;;9.09
65316;BMP280;51920;53.952;10.292;2023-02-11T13:22:19;102302.88;;;9.06
65316;BMP280;51920;53.952;10.292;2023-02-11T13:30:28;102304.94;;;9.09
65316;BMP280;51920;53.952;10.292;2023-02-11T13:35:32;102309.88;;;9.07
65316;BMP280;51920;53.952;10.292;2023-02-11T13:37:59;102313.44;;;8.99
65316;BMP280;51920;53.952;10.292;2023-02-11T13:40:32;102325.84;;;9.00
65316;BMP280;51920;53.952;10.292;2023-02-11T13:43:00;102332.34;;;8.99
65316;BMP280;51920;53.952;10.292;2023-02-11T13:45:44;102334.13;;;8.95
65316;BMP280;51920;53.952;10.292;2023-02-11T13:48:28;102343.34;;;8.94
65316;BMP280;51920;53.952;10.292;2023-02-11T13:51:02;102352.69;;;8.96
65316;BMP280;51920;53.952;10.292;2023-02-11T13:53:29;102348.75;;;8.94
65316;BMP280;51920;53.952;10.292;2023-02-11T13:56:36;102357.50;;;8.90
65316;BMP280;51920;53.952;10.292;2023-02-11T13:59:50;102353.22;;;8.89
65316;BMP280;51920;53.952;10.292;2023-02-11T14:04:33;102358.00;;;8.84
65316;BMP280;51920;53.952;10.292;2023-02-11T14:07:27;102366.28;;;8.87
65316;BMP280;51920;53.952;10.292;2023-02-11T14:13:24;102380.88;;;8.86
65316;BMP280;51920;53.952;10.292;2023-02-11T14:16:10;102385.66;;;8.89
65316;BMP280;51920;53.952;10.292;2023-02-11T14:18:56;102391.69;;;8.86
65316;BMP280;51920;53.952;10.292;2023-02-11T14:26:56;102400.00;;;8.81
65316;BMP280;51920;53.952;10.292;2023-02-11T14:29:34;102394.59;;;8.81
65316;BMP280;51920;53.952;10.292;2023-02-11T14:34:42;102409.69;;;8.82
65316;BMP280;51920;53.952;10.292;2023-02-11T14:39:59;102426.69;;;8.74
65316;BMP280;51920;53.952;10.292;2023-02-11T14:42:28;102418.78;;;8.69
65316;BMP280;51920;53.952;10.292;2023-02-11T14:44:57;102417.22;;;8.68
65316;BMP280;51920;53.952;10.292;2023-02-11T14:47:39;102421.16;;;8.62
65316;BMP280;51920;53.952;10.292;2023-02-11T14:50:06;102422.75;;;8.63
65316;BMP280;51920;53.952;10.292;2023-02-11T14:52:37;102416.75;;;8.57
65316;BMP280;51920;53.952;10.292;2023-02-11T14:57:42;102426.44;;;8.58
65316;BMP280;51920;53.952;10.292;2023-02-11T15:00:19;102428.66;;;8.56
65316;BMP280;51920;53.952;10.292;2023-02-11T15:02:45;102430.56;;;8.56
65316;BMP280;51920;53.952;10.292;2023-02-11T15:05:14;102438.69;;;8.56
65316;BMP280;51920;53.952;10.292;2023-02-11T15:07:49;102450.09;;;8.53
65316;BMP280;51920;53.952;10.292;2023-02-11T15:10:26;102456.78;;;8.46
65316;BMP280;51920;53.952;10.292;2023-02-11T15:12:53;102458.69;;;8.46
65316;BMP280;51920;53.952;10.292;2023-02-11T15:15:19;102460.78;;;8.40
65316;BMP280;51920;53.952;10.292;2023-02-11T15:17:44;102463.47;;;8.40
65316;BMP280;51920;53.952;10.292;2023-02-11T15:20:23;102474.28;;;8.40
65316;BMP280;51920;53.952;10.292;2023-02-11T15:22:54;102480.31;;;8.37
65316;BMP280;51920;53.952;10.292;2023-02-11T15:25:20;102482.38;;;8.40
65316;BMP280;51920;53.952;10.292;2023-02-11T15:27:49;102494.28;;;8.39
65316;BMP280;51920;53.952;10.292;2023-02-11T15:32:48;102492.53;;;8.43
65316;BMP280;51920;53.952;10.292;2023-02-11T15:35:15;102485.53;;;8.68
65316;BMP280;51920;53.952;10.292;2023-02-11T15:37:43;102479.97;;;8.74
65316;BMP280;51920;53.952;10.292;2023-02-11T15:40:20;102493.19;;;8.58
65316;BMP280;51920;53.952;10.292;2023-02-11T15:43:09;102489.53;;;8.54
65316;BMP280;51920;53.952;10.292;2023-02-11T15:45:38;102493.50;;;8.47
65316;BMP280;51920;53.952;10.292;2023-02-11T15:50:36;102493.31;;;8.44
65316;BMP280;51920;53.952;10.292;2023-02-11T15:53:20;102492.41;;;8.40
65316;BMP280;51920;53.952;10.292;2023-02-11T15:55:48;102500.03;;;8.38
65316;BMP280;51920;53.952;10.292;2023-02-11T15:58:14;102499.22;;;8.37
65316;BMP280;51920;53.952;10.292;2023-02-11T16:00:48;102496.81;;;8.36
65316;BMP280;51920;53.952;10.292;2023-02-11T16:03:23;102503.81;;;8.45
65316;BMP280;51920;53.952;10.292;2023-02-11T16:05:49;102496.47;;;8.89
65316;BMP280;51920;53.952;10.292;2023-02-11T16:08:26;102498.66;;;8.96
65316;BMP280;51920;53.952;10.292;2023-02-11T16:11:02;102504.91;;;8.62
65316;BMP280;51920;53.952;10.292;2023-02-11T16:13:43;102512.09;;;8.49
65316;BMP280;51920;53.952;10.292;2023-02-11T16:16:27;102513.34;;;8.34
65316;BMP280;51920;53.952;10.292;2023-02-11T16:18:55;102522.06;;;8.31
65316;BMP280;51920;53.952;10.292;2023-02-11T16:21:27;102525.25;;;8.33